sensor_id;sensor_type;location;lat;lon;timestamp;P1;durP1;ratioP1;P2;durP2;ratioP2
76593;SDS011;65482;50.240;14.302;2023-05-08T00:00:55;12.32;;;8.45;;
76593;SDS011;65482;50.240;14.302;2023-05-08T00:03:21;11.88;;;8.30;;
76593;SDS011;65482;50.240;14.302;2023-05-08T00:05:48;13.65;;;9.02;;
76593;SDS011;65482;50.240;14.302;2023-05-08T00:08:13;11.27;;;8.45;;
76593;SDS011;65482;50.240;14.302;2023-05-08T00:10:39;11.23;;;8.57;;
76593;SDS011;65482;50.240;14.302;2023-05-08T00:13:05;12.02;;;8.70;;
76593;SDS011;65482;50.240;14.302;2023-05-08T00:15:31;12.60;;;7.68;;
76593;SDS011;65482;50.240;14.302;2023-05-08T00:17:57;12.07;;;8.30;;
76593;SDS011;65482;50.240;14.302;2023-05-08T00:20:25;12.70;;;8.40;;
76593;SDS011;65482;50.240;14.302;2023-05-08T00:22:51;10.25;;;7.32;;
76593;SDS011;65482;50.240;14.302;2023-05-08T00:25:16;11.10;;;7.20;;
76593;SDS011;65482;50.240;14.302;2023-05-08T00:27:43;10.32;;;7.38;;
76593;SDS011;65482;50.240;14.302;2023-05-08T00:30:09;11.30;;;7.72;;
76593;SDS011;65482;50.240;14.302;2023-05-08T00:32:35;10.73;;;8.27;;
76593;SDS011;65482;50.240;14.302;2023-05-08T00:35:01;10.13;;;7.80;;
76593;SDS011;65482;50.240;14.302;2023-05-08T00:37:26;11.93;;;7.28;;
76593;SDS011;65482;50.240;14.302;2023-05-08T00:39:52;12.27;;;8.23;;
76593;SDS011;65482;50.240;14.302;2023-05-08T00:42:17;11.85;;;7.50;;
76593;SDS011;65482;50.240;14.302;2023-05-08T00:44:43;11.82;;;7.30;;
76593;SDS011;65482;50.240;14.302;2023-05-08T00:47:10;10.55;;;7.82;;
76593;SDS011;65482;50.240;14.302;2023-05-08T00:49:35;11.15;;;8.02;;
76593;SDS011;65482;50.240;14.302;2023-05-08T00:52:03;11.48;;;8.13;;
76593;SDS011;65482;50.240;14.302;2023-05-08T00:54:36;10.75;;;7.68;;
76593;SDS011;65482;50.240;14.302;2023-05-08T00:57:04;11.05;;;7.85;;
76593;SDS011;65482;50.240;14.302;2023-05-08T00:59:31;13.00;;;7.90;;
76593;SDS011;65482;50.240;14.302;2023-05-08T01:01:57;12.00;;;8.30;;
76593;SDS011;65482;50.240;14.302;2023-05-08T01:04:24;11.43;;;7.82;;
76593;SDS011;65482;50.240;14.302;2023-05-08T01:06:50;11.73;;;8.40;;
76593;SDS011;65482;50.240;14.302;2023-05-08T01:09:17;10.95;;;7.20;;
76593;SDS011;65482;50.240;14.302;2023-05-08T01:11:44;11.75;;;7.45;;
76593;SDS011;65482;50.240;14.302;2023-05-08T01:14:20;11.13;;;7.82;;
76593;SDS011;65482;50.240;14.302;2023-05-08T01:19:41;9.90;;;7.22;;
76593;SDS011;65482;50.240;14.302;2023-05-08T01:33:50;10.63;;;6.80;;
76593;SDS011;65482;50.240;14.302;2023-05-08T01:36:22;10.65;;;6.88;;
76593;SDS011;65482;50.240;14.302;2023-05-08T01:41:56;10.25;;;7.03;;
76593;SDS011;65482;50.240;14.302;2023-05-08T01:44:32;9.32;;;6.68;;
76593;SDS011;65482;50.240;14.302;2023-05-08T01:47:05;10.43;;;7.03;;
76593;SDS011;65482;50.240;14.302;2023-05-08T01:49:35;8.88;;;6.60;;
76593;SDS011;65482;50.240;14.302;2023-05-08T01:52:05;10.20;;;6.53;;
76593;SDS011;65482;50.240;14.302;2023-05-08T01:54:42;10.60;;;6.85;;
76593;SDS011;65482;50.240;14.302;2023-05-08T01:57:13;9.55;;;6.90;;
76593;SDS011;65482;50.240;14.302;2023-05-08T01:59:40;8.50;;;6.93;;
76593;SDS011;65482;50.240;14.302;2023-05-08T02:02:08;9.88;;;7.15;;
76593;SDS011;65482;50.240;14.302;2023-05-08T02:04:35;10.82;;;6.82;;
76593;SDS011;65482;50.240;14.302;2023-05-08T02:07:02;8.45;;;6.95;;
76593;SDS011;65482;50.240;14.302;2023-05-08T02:09:29;8.27;;;6.35;;
76593;SDS011;65482;50.240;14.302;2023-05-08T02:11:55;9.48;;;6.97;;
76593;SDS011;65482;50.240;14.302;2023-05-08T02:14:22;11.75;;;7.22;;
76593;SDS011;65482;50.240;14.302;2023-05-08T02:16:51;10.52;;;7.50;;
76593;SDS011;65482;50.240;14.302;2023-05-08T02:19:20;11.13;;;6.63;;
76593;SDS011;65482;50.240;14.302;2023-05-08T02:21:50;10.38;;;7.57;;
76593;SDS011;65482;50.240;14.302;2023-05-08T02:24:16;10.88;;;7.00;;
76593;SDS011;65482;50.240;14.302;2023-05-08T02:26:43;11.52;;;7.32;;
76593;SDS011;65482;50.240;14.302;2023-05-08T02:29:11;11.05;;;7.45;;
76593;SDS011;65482;50.240;14.302;2023-05-08T02:31:37;11.52;;;7.60;;
76593;SDS011;65482;50.240;14.302;2023-05-08T02:34:03;11.57;;;7.85;;
76593;SDS011;65482;50.240;14.302;2023-05-08T02:36:30;12.43;;;8.52;;
76593;SDS011;65482;50.240;14.302;2023-05-08T02:38:57;11.75;;;8.23;;
76593;SDS011;65482;50.240;14.302;2023-05-08T02:41:28;13.18;;;8.60;;
76593;SDS011;65482;50.240;14.302;2023-05-08T02:43:56;14.40;;;8.82;;
76593;SDS011;65482;50.240;14.302;2023-05-08T02:47:24;11.93;;;8.55;;
76593;SDS011;65482;50.240;14.302;2023-05-08T02:49:40;13.85;;;8.43;;
76593;SDS011;65482;50.240;14.302;2023-05-08T02:52:12;13.35;;;8.25;;
76593;SDS011;65482;50.240;14.302;2023-05-08T02:54:41;14.15;;;8.63;;
76593;SDS011;65482;50.240;14.302;2023-05-08T03:00:14;13.35;;;8.30;;
76593;SDS011;65482;50.240;14.302;2023-05-08T03:02:46;14.07;;;8.05;;
76593;SDS011;65482;50.240;14.302;2023-05-08T03:05:17;12.95;;;8.30;;
76593;SDS011;65482;50.240;14.302;2023-05-08T03:07:46;12.57;;;7.93;;
76593;SDS011;65482;50.240;14.302;2023-05-08T03:10:17;13.32;;;7.95;;
76593;SDS011;65482;50.240;14.302;2023-05-08T03:12:47;12.85;;;8.30;;
76593;SDS011;65482;50.240;14.302;2023-05-08T03:15:25;12.65;;;8.15;;
76593;SDS011;65482;50.240;14.302;2023-05-08T03:17:56;12.90;;;7.45;;
76593;SDS011;65482;50.240;14.302;2023-05-08T03:20:25;11.15;;;7.20;;
76593;SDS011;65482;50.240;14.302;2023-05-08T03:22:55;11.75;;;7.88;;
76593;SDS011;65482;50.240;14.302;2023-05-08T03:25:21;11.88;;;7.85;;
76593;SDS011;65482;50.240;14.302;2023-05-08T03:27:48;13.23;;;8.30;;
76593;SDS011;65482;50.240;14.302;2023-05-08T03:30:14;16.48;;;8.10;;
76593;SDS011;65482;50.240;14.302;2023-05-08T03:32:44;13.20;;;8.07;;
76593;SDS011;65482;50.240;14.302;2023-05-08T03:35:10;13.48;;;8.77;;
76593;SDS011;65482;50.240;14.302;2023-05-08T03:37:39;13.07;;;8.35;;
76593;SDS011;65482;50.240;14.302;2023-05-08T03:40:05;12.80;;;7.90;;
76593;SDS011;65482;50.240;14.302;2023-05-08T03:42:32;11.68;;;7.10;;
76593;SDS011;65482;50.240;14.302;2023-05-08T03:44:57;12.52;;;7.85;;
76593;SDS011;65482;50.240;14.302;2023-05-08T03:47:24;12.93;;;8.10;;
76593;SDS011;65482;50.240;14.302;2023-05-08T03:49:50;12.45;;;7.45;;
76593;SDS011;65482;50.240;14.302;2023-05-08T03:52:16;17.27;;;7.07;;
76593;SDS011;65482;50.240;14.302;2023-05-08T03:54:42;10.82;;;7.28;;
76593;SDS011;65482;50.240;14.302;2023-05-08T03:57:08;11.95;;;7.53;;
76593;SDS011;65482;50.240;14.302;2023-05-08T04:02:36;12.02;;;7.80;;
76593;SDS011;65482;50.240;14.302;2023-05-08T04:05:09;11.50;;;7.05;;
76593;SDS011;65482;50.240;14.302;2023-05-08T04:07:47;10.88;;;7.78;;
76593;SDS011;65482;50.240;14.302;2023-05-08T04:13:07;11.38;;;7.57;;
76593;SDS011;65482;50.240;14.302;2023-05-08T04:15:37;10.63;;;7.38;;
76593;SDS011;65482;50.240;14.302;2023-05-08T04:18:09;10.48;;;7.57;;
76593;SDS011;65482;50.240;14.302;2023-05-08T04:20:39;9.90;;;7.20;;
76593;SDS011;65482;50.240;14.302;2023-05-08T04:23:06;11.18;;;7.38;;
76593;SDS011;65482;50.240;14.302;2023-05-08T04:25:35;14.10;;;7.65;;
76593;SDS011;65482;50.240;14.302;2023-05-08T04:28:03;12.27;;;7.35;;
76593;SDS011;65482;50.240;14.302;2023-05-08T04:30:29;15.07;;;8.30;;
76593;SDS011;65482;50.240;14.302;2023-05-08T04:32:55;11.18;;;7.60;;
76593;SDS011;65482;50.240;14.302;2023-05-08T04:35:22;11.25;;;8.18;;
76593;SDS011;65482;50.240;14.302;2023-05-08T04:37:48;12.48;;;8.18;;
76593;SDS011;65482;50.240;14.302;2023-05-08T04:40:13;12.57;;;8.02;;
76593;SDS011;65482;50.240;14.302;2023-05-08T04:42:39;12.20;;;8.23;;
76593;SDS011;65482;50.240;14.302;2023-05-08T04:45:07;13.95;;;8.85;;
76593;SDS011;65482;50.240;14.302;2023-05-08T04:47:34;11.32;;;8.02;;
76593;SDS011;65482;50.240;14.302;2023-05-08T04:49:59;15.27;;;8.90;;
76593;SDS011;65482;50.240;14.302;2023-05-08T04:52:25;13.25;;;7.70;;
76593;SDS011;65482;50.240;14.302;2023-05-08T04:54:51;11.85;;;7.53;;
76593;SDS011;65482;50.240;14.302;2023-05-08T04:57:17;12.77;;;8.45;;
76593;SDS011;65482;50.240;14.302;2023-05-08T04:59:42;14.45;;;8.10;;
76593;SDS011;65482;50.240;14.302;2023-05-08T05:02:08;11.60;;;8.65;;
76593;SDS011;65482;50.240;14.302;2023-05-08T05:04:34;13.43;;;7.80;;
76593;SDS011;65482;50.240;14.302;2023-05-08T05:07:01;11.95;;;8.20;;
76593;SDS011;65482;50.240;14.302;2023-05-08T05:09:27;12.13;;;7.93;;
76593;SDS011;65482;50.240;14.302;2023-05-08T05:11:52;12.48;;;7.10;;
76593;SDS011;65482;50.240;14.302;2023-05-08T05:14:18;9.68;;;6.40;;
76593;SDS011;65482;50.240;14.302;2023-05-08T05:16:44;9.68;;;6.65;;
76593;SDS011;65482;50.240;14.302;2023-05-08T05:19:09;8.40;;;6.00;;
76593;SDS011;65482;50.240;14.302;2023-05-08T05:21:36;8.70;;;6.25;;
76593;SDS011;65482;50.240;14.302;2023-05-08T05:24:04;7.57;;;5.68;;
76593;SDS011;65482;50.240;14.302;2023-05-08T05:26:31;8.23;;;5.82;;
76593;SDS011;65482;50.240;14.302;2023-05-08T05:28:57;7.45;;;5.00;;
76593;SDS011;65482;50.240;14.302;2023-05-08T05:31:22;6.70;;;4.93;;
76593;SDS011;65482;50.240;14.302;2023-05-08T05:33:48;6.07;;;4.80;;
76593;SDS011;65482;50.240;14.302;2023-05-08T05:36:14;6.88;;;4.93;;
76593;SDS011;65482;50.240;14.302;2023-05-08T05:38:39;6.20;;;4.47;;
76593;SDS011;65482;50.240;14.302;2023-05-08T05:41:05;7.75;;;4.93;;
76593;SDS011;65482;50.240;14.302;2023-05-08T05:43:31;7.32;;;4.85;;
76593;SDS011;65482;50.240;14.302;2023-05-08T05:46:07;9.02;;;4.85;;
76593;SDS011;65482;50.240;14.302;2023-05-08T05:48:33;5.25;;;4.03;;
76593;SDS011;65482;50.240;14.302;2023-05-08T05:51:00;5.55;;;4.28;;
76593;SDS011;65482;50.240;14.302;2023-05-08T05:53:26;6.55;;;4.60;;
76593;SDS011;65482;50.240;14.302;2023-05-08T05:55:51;5.15;;;4.18;;
76593;SDS011;65482;50.240;14.302;2023-05-08T05:58:17;5.90;;;4.57;;
76593;SDS011;65482;50.240;14.302;2023-05-08T06:00:43;8.27;;;4.93;;
76593;SDS011;65482;50.240;14.302;2023-05-08T06:03:08;5.15;;;4.40;;
76593;SDS011;65482;50.240;14.302;2023-05-08T06:05:38;5.95;;;4.60;;
76593;SDS011;65482;50.240;14.302;2023-05-08T06:08:04;7.22;;;4.85;;
76593;SDS011;65482;50.240;14.302;2023-05-08T06:10:31;7.75;;;4.60;;
76593;SDS011;65482;50.240;14.302;2023-05-08T06:12:57;8.50;;;5.25;;
76593;SDS011;65482;50.240;14.302;2023-05-08T06:15:23;5.38;;;4.55;;
76593;SDS011;65482;50.240;14.302;2023-05-08T06:17:49;6.32;;;4.63;;
76593;SDS011;65482;50.240;14.302;2023-05-08T06:20:15;4.85;;;4.22;;
76593;SDS011;65482;50.240;14.302;2023-05-08T06:22:41;5.47;;;4.32;;
76593;SDS011;65482;50.240;14.302;2023-05-08T06:25:07;6.00;;;4.40;;
76593;SDS011;65482;50.240;14.302;2023-05-08T06:27:33;5.38;;;4.03;;
76593;SDS011;65482;50.240;14.302;2023-05-08T06:30:01;4.40;;;3.95;;
76593;SDS011;65482;50.240;14.302;2023-05-08T06:32:28;7.80;;;4.57;;
76593;SDS011;65482;50.240;14.302;2023-05-08T06:34:55;5.68;;;4.30;;
76593;SDS011;65482;50.240;14.302;2023-05-08T06:37:21;6.00;;;4.43;;
76593;SDS011;65482;50.240;14.302;2023-05-08T06:39:46;4.97;;;4.43;;
76593;SDS011;65482;50.240;14.302;2023-05-08T06:42:12;13.63;;;5.25;;
76593;SDS011;65482;50.240;14.302;2023-05-08T06:44:38;5.28;;;4.53;;
76593;SDS011;65482;50.240;14.302;2023-05-08T06:47:05;5.25;;;4.20;;
76593;SDS011;65482;50.240;14.302;2023-05-08T06:49:31;5.35;;;4.35;;
76593;SDS011;65482;50.240;14.302;2023-05-08T06:51:57;5.05;;;4.30;;
76593;SDS011;65482;50.240;14.302;2023-05-08T06:54:25;4.88;;;4.35;;
76593;SDS011;65482;50.240;14.302;2023-05-08T06:56:52;4.90;;;4.25;;
76593;SDS011;65482;50.240;14.302;2023-05-08T06:59:19;5.63;;;4.20;;
76593;SDS011;65482;50.240;14.302;2023-05-08T07:01:45;6.13;;;4.55;;
76593;SDS011;65482;50.240;14.302;2023-05-08T07:04:12;5.50;;;4.40;;
76593;SDS011;65482;50.240;14.302;2023-05-08T07:06:38;4.85;;;4.18;;
76593;SDS011;65482;50.240;14.302;2023-05-08T07:09:03;4.40;;;3.90;;
76593;SDS011;65482;50.240;14.302;2023-05-08T07:11:29;5.10;;;3.97;;
76593;SDS011;65482;50.240;14.302;2023-05-08T07:13:57;4.80;;;3.80;;
76593;SDS011;65482;50.240;14.302;2023-05-08T07:16:22;4.57;;;4.00;;
76593;SDS011;65482;50.240;14.302;2023-05-08T07:18:50;4.88;;;3.38;;
76593;SDS011;65482;50.240;14.302;2023-05-08T07:21:17;5.18;;;3.90;;
76593;SDS011;65482;50.240;14.302;2023-05-08T07:23:44;5.28;;;3.70;;
76593;SDS011;65482;50.240;14.302;2023-05-08T07:26:10;3.70;;;3.22;;
76593;SDS011;65482;50.240;14.302;2023-05-08T07:28:36;5.20;;;4.00;;
76593;SDS011;65482;50.240;14.302;2023-05-08T07:31:04;4.63;;;3.83;;
76593;SDS011;65482;50.240;14.302;2023-05-08T07:33:32;4.32;;;3.90;;
76593;SDS011;65482;50.240;14.302;2023-05-08T07:36:00;5.60;;;3.75;;
76593;SDS011;65482;50.240;14.302;2023-05-08T07:38:27;4.10;;;3.70;;
76593;SDS011;65482;50.240;14.302;2023-05-08T07:40:53;4.22;;;3.83;;
76593;SDS011;65482;50.240;14.302;2023-05-08T07:43:23;4.00;;;3.40;;
76593;SDS011;65482;50.240;14.302;2023-05-08T07:45:50;4.13;;;3.30;;
76593;SDS011;65482;50.240;14.302;2023-05-08T07:48:19;3.95;;;3.63;;
76593;SDS011;65482;50.240;14.302;2023-05-08T07:50:48;3.40;;;3.10;;
76593;SDS011;65482;50.240;14.302;2023-05-08T07:53:17;3.47;;;3.17;;
76593;SDS011;65482;50.240;14.302;2023-05-08T07:55:42;3.72;;;3.42;;
76593;SDS011;65482;50.240;14.302;2023-05-08T07:58:08;3.67;;;3.38;;
76593;SDS011;65482;50.240;14.302;2023-05-08T08:00:34;3.88;;;3.47;;
76593;SDS011;65482;50.240;14.302;2023-05-08T08:03:04;3.53;;;3.15;;
76593;SDS011;65482;50.240;14.302;2023-05-08T08:05:29;3.90;;;3.15;;
76593;SDS011;65482;50.240;14.302;2023-05-08T08:07:58;4.43;;;3.60;;
76593;SDS011;65482;50.240;14.302;2023-05-08T08:10:28;3.92;;;3.50;;
76593;SDS011;65482;50.240;14.302;2023-05-08T08:12:55;3.90;;;3.50;;
76593;SDS011;65482;50.240;14.302;2023-05-08T08:15:45;6.35;;;3.50;;
76593;SDS011;65482;50.240;14.302;2023-05-08T08:18:15;4.00;;;3.60;;
76593;SDS011;65482;50.240;14.302;2023-05-08T08:20:52;4.00;;;3.25;;
76593;SDS011;65482;50.240;14.302;2023-05-08T08:23:18;3.78;;;3.38;;
76593;SDS011;65482;50.240;14.302;2023-05-08T08:25:44;4.30;;;3.40;;
76593;SDS011;65482;50.240;14.302;2023-05-08T08:28:29;3.83;;;3.22;;
76593;SDS011;65482;50.240;14.302;2023-05-08T08:30:59;3.83;;;3.40;;
76593;SDS011;65482;50.240;14.302;2023-05-08T08:33:30;4.43;;;3.53;;
76593;SDS011;65482;50.240;14.302;2023-05-08T08:36:02;3.95;;;3.50;;
76593;SDS011;65482;50.240;14.302;2023-05-08T08:38:33;4.38;;;3.15;;
76593;SDS011;65482;50.240;14.302;2023-05-08T08:43:29;3.80;;;3.40;;
76593;SDS011;65482;50.240;14.302;2023-05-08T08:46:02;4.32;;;3.30;;
76593;SDS011;65482;50.240;14.302;2023-05-08T08:48:42;3.70;;;3.00;;
76593;SDS011;65482;50.240;14.302;2023-05-08T08:51:16;4.05;;;3.30;;
76593;SDS011;65482;50.240;14.302;2023-05-08T08:54:20;4.00;;;3.60;;
76593;SDS011;65482;50.240;14.302;2023-05-08T08:57:05;3.70;;;3.40;;
76593;SDS011;65482;50.240;14.302;2023-05-08T08:59:33;3.88;;;3.33;;
76593;SDS011;65482;50.240;14.302;2023-05-08T09:02:11;3.60;;;3.05;;
76593;SDS011;65482;50.240;14.302;2023-05-08T09:04:44;4.55;;;3.40;;
76593;SDS011;65482;50.240;14.302;2023-05-08T09:07:20;3.70;;;3.30;;
76593;SDS011;65482;50.240;14.302;2023-05-08T09:09:49;4.60;;;3.28;;
76593;SDS011;65482;50.240;14.302;2023-05-08T09:12:20;3.65;;;3.35;;
76593;SDS011;65482;50.240;14.302;2023-05-08T09:14:59;3.85;;;3.15;;
76593;SDS011;65482;50.240;14.302;2023-05-08T09:17:30;3.65;;;3.03;;
76593;SDS011;65482;50.240;14.302;2023-05-08T09:20:04;3.45;;;3.13;;
76593;SDS011;65482;50.240;14.302;2023-05-08T09:22:38;6.35;;;3.38;;
76593;SDS011;65482;50.240;14.302;2023-05-08T09:25:07;5.18;;;3.25;;
76593;SDS011;65482;50.240;14.302;2023-05-08T09:27:35;3.45;;;3.13;;
76593;SDS011;65482;50.240;14.302;2023-05-08T09:30:09;3.83;;;2.67;;
76593;SDS011;65482;50.240;14.302;2023-05-08T09:33:09;3.40;;;3.10;;
76593;SDS011;65482;50.240;14.302;2023-05-08T09:35:38;3.60;;;3.08;;
76593;SDS011;65482;50.240;14.302;2023-05-08T09:38:30;5.70;;;3.10;;
76593;SDS011;65482;50.240;14.302;2023-05-08T09:41:14;3.15;;;2.70;;
76593;SDS011;65482;50.240;14.302;2023-05-08T09:44:03;3.47;;;2.90;;
76593;SDS011;65482;50.240;14.302;2023-05-08T09:46:32;6.75;;;3.03;;
76593;SDS011;65482;50.240;14.302;2023-05-08T09:49:15;4.70;;;3.05;;
76593;SDS011;65482;50.240;14.302;2023-05-08T09:51:51;4.00;;;3.05;;
76593;SDS011;65482;50.240;14.302;2023-05-08T09:54:19;3.50;;;2.80;;
76593;SDS011;65482;50.240;14.302;2023-05-08T09:56:45;3.60;;;3.05;;
76593;SDS011;65482;50.240;14.302;2023-05-08T09:59:25;3.53;;;3.03;;
76593;SDS011;65482;50.240;14.302;2023-05-08T10:01:56;3.25;;;2.70;;
76593;SDS011;65482;50.240;14.302;2023-05-08T10:04:30;5.65;;;3.30;;
76593;SDS011;65482;50.240;14.302;2023-05-08T10:07:04;4.25;;;3.17;;
76593;SDS011;65482;50.240;14.302;2023-05-08T10:09:48;3.22;;;2.75;;
76593;SDS011;65482;50.240;14.302;2023-05-08T10:12:25;4.00;;;2.40;;
76593;SDS011;65482;50.240;14.302;2023-05-08T10:14:51;4.90;;;3.05;;
76593;SDS011;65482;50.240;14.302;2023-05-08T10:17:19;3.55;;;2.40;;
76593;SDS011;65482;50.240;14.302;2023-05-08T10:19:57;2.40;;;2.20;;
76593;SDS011;65482;50.240;14.302;2023-05-08T10:22:25;4.55;;;2.60;;
76593;SDS011;65482;50.240;14.302;2023-05-08T10:24:54;3.10;;;2.47;;
76593;SDS011;65482;50.240;14.302;2023-05-08T10:27:27;3.10;;;2.80;;
76593;SDS011;65482;50.240;14.302;2023-05-08T10:30:03;4.40;;;3.20;;
76593;SDS011;65482;50.240;14.302;2023-05-08T10:32:38;3.53;;;2.80;;
76593;SDS011;65482;50.240;14.302;2023-05-08T10:35:10;3.72;;;2.63;;
76593;SDS011;65482;50.240;14.302;2023-05-08T10:37:40;14.88;;;4.53;;
76593;SDS011;65482;50.240;14.302;2023-05-08T10:40:09;4.35;;;2.85;;
76593;SDS011;65482;50.240;14.302;2023-05-08T10:42:40;2.78;;;2.45;;
76593;SDS011;65482;50.240;14.302;2023-05-08T10:45:07;3.58;;;2.85;;
76593;SDS011;65482;50.240;14.302;2023-05-08T10:56:03;3.78;;;2.92;;
76593;SDS011;65482;50.240;14.302;2023-05-08T10:58:33;4.35;;;2.58;;
76593;SDS011;65482;50.240;14.302;2023-05-08T11:01:22;3.08;;;2.63;;
76593;SDS011;65482;50.240;14.302;2023-05-08T11:03:49;2.85;;;2.33;;
76593;SDS011;65482;50.240;14.302;2023-05-08T11:06:47;3.92;;;2.20;;
76593;SDS011;65482;50.240;14.302;2023-05-08T11:09:21;2.90;;;2.03;;
76593;SDS011;65482;50.240;14.302;2023-05-08T11:12:02;2.92;;;2.45;;
76593;SDS011;65482;50.240;14.302;2023-05-08T11:14:37;2.88;;;2.30;;
76593;SDS011;65482;50.240;14.302;2023-05-08T11:17:08;3.80;;;2.40;;
76593;SDS011;65482;50.240;14.302;2023-05-08T11:19:36;3.45;;;2.33;;
76593;SDS011;65482;50.240;14.302;2023-05-08T11:27:15;3.10;;;2.10;;
76593;SDS011;65482;50.240;14.302;2023-05-08T11:29:41;2.75;;;2.15;;
76593;SDS011;65482;50.240;14.302;2023-05-08T11:32:11;3.28;;;2.40;;
76593;SDS011;65482;50.240;14.302;2023-05-08T11:37:19;4.70;;;2.42;;
76593;SDS011;65482;50.240;14.302;2023-05-08T11:39:53;2.83;;;1.85;;
76593;SDS011;65482;50.240;14.302;2023-05-08T11:47:38;2.80;;;2.40;;
76593;SDS011;65482;50.240;14.302;2023-05-08T11:50:08;2.63;;;2.30;;
76593;SDS011;65482;50.240;14.302;2023-05-08T11:52:34;3.00;;;2.10;;
76593;SDS011;65482;50.240;14.302;2023-05-08T11:55:06;2.90;;;2.13;;
76593;SDS011;65482;50.240;14.302;2023-05-08T11:57:37;2.80;;;2.13;;
76593;SDS011;65482;50.240;14.302;2023-05-08T12:05:07;2.58;;;2.13;;
76593;SDS011;65482;50.240;14.302;2023-05-08T12:07:47;2.70;;;2.20;;
76593;SDS011;65482;50.240;14.302;2023-05-08T12:10:18;2.53;;;2.00;;
76593;SDS011;65482;50.240;14.302;2023-05-08T12:12:44;2.63;;;2.42;;
76593;SDS011;65482;50.240;14.302;2023-05-08T12:15:12;3.28;;;2.00;;
76593;SDS011;65482;50.240;14.302;2023-05-08T12:17:40;2.42;;;2.05;;
76593;SDS011;65482;50.240;14.302;2023-05-08T12:20:17;3.53;;;2.20;;
76593;SDS011;65482;50.240;14.302;2023-05-08T12:22:51;2.58;;;1.90;;
76593;SDS011;65482;50.240;14.302;2023-05-08T12:25:18;2.67;;;1.98;;
76593;SDS011;65482;50.240;14.302;2023-05-08T12:27:44;3.10;;;1.90;;
76593;SDS011;65482;50.240;14.302;2023-05-08T12:30:11;4.05;;;1.88;;
76593;SDS011;65482;50.240;14.302;2023-05-08T12:32:41;3.80;;;1.98;;
76593;SDS011;65482;50.240;14.302;2023-05-08T12:35:08;6.22;;;2.30;;
76593;SDS011;65482;50.240;14.302;2023-05-08T12:37:39;2.58;;;1.92;;
76593;SDS011;65482;50.240;14.302;2023-05-08T12:40:05;2.50;;;2.05;;
76593;SDS011;65482;50.240;14.302;2023-05-08T12:45:54;2.70;;;2.00;;
76593;SDS011;65482;50.240;14.302;2023-05-08T12:48:04;2.80;;;2.10;;
76593;SDS011;65482;50.240;14.302;2023-05-08T12:50:34;2.70;;;2.03;;
76593;SDS011;65482;50.240;14.302;2023-05-08T12:53:03;2.53;;;2.10;;
76593;SDS011;65482;50.240;14.302;2023-05-08T12:55:32;5.55;;;2.35;;
76593;SDS011;65482;50.240;14.302;2023-05-08T13:00:35;3.10;;;2.03;;
76593;SDS011;65482;50.240;14.302;2023-05-08T13:03:08;2.90;;;1.92;;
76593;SDS011;65482;50.240;14.302;2023-05-08T13:05:41;4.55;;;1.80;;
76593;SDS011;65482;50.240;14.302;2023-05-08T13:08:11;2.13;;;1.80;;
76593;SDS011;65482;50.240;14.302;2023-05-08T13:10:44;2.70;;;1.83;;
76593;SDS011;65482;50.240;14.302;2023-05-08T13:13:15;2.00;;;1.80;;
76593;SDS011;65482;50.240;14.302;2023-05-08T13:15:43;3.70;;;1.67;;
76593;SDS011;65482;50.240;14.302;2023-05-08T13:18:09;2.95;;;2.00;;
76593;SDS011;65482;50.240;14.302;2023-05-08T13:20:35;2.90;;;1.75;;
76593;SDS011;65482;50.240;14.302;2023-05-08T13:23:07;2.33;;;2.05;;
76593;SDS011;65482;50.240;14.302;2023-05-08T13:25:34;3.58;;;1.90;;
76593;SDS011;65482;50.240;14.302;2023-05-08T13:28:01;2.67;;;1.80;;
76593;SDS011;65482;50.240;14.302;2023-05-08T13:30:27;3.60;;;2.00;;
76593;SDS011;65482;50.240;14.302;2023-05-08T13:32:54;2.28;;;1.50;;
76593;SDS011;65482;50.240;14.302;2023-05-08T13:35:22;3.80;;;1.92;;
76593;SDS011;65482;50.240;14.302;2023-05-08T13:37:48;4.95;;;2.10;;
76593;SDS011;65482;50.240;14.302;2023-05-08T13:40:14;4.43;;;2.00;;
76593;SDS011;65482;50.240;14.302;2023-05-08T13:42:59;2.85;;;2.00;;
76593;SDS011;65482;50.240;14.302;2023-05-08T13:45:28;2.28;;;1.83;;
76593;SDS011;65482;50.240;14.302;2023-05-08T13:47:54;2.45;;;2.03;;
76593;SDS011;65482;50.240;14.302;2023-05-08T13:50:20;6.10;;;2.00;;
76593;SDS011;65482;50.240;14.302;2023-05-08T13:52:48;3.10;;;1.80;;
76593;SDS011;65482;50.240;14.302;2023-05-08T13:55:17;6.80;;;2.20;;
76593;SDS011;65482;50.240;14.302;2023-05-08T13:57:46;2.67;;;1.88;;
76593;SDS011;65482;50.240;14.302;2023-05-08T14:00:12;4.03;;;2.20;;
76593;SDS011;65482;50.240;14.302;2023-05-08T14:02:38;1.95;;;1.70;;
76593;SDS011;65482;50.240;14.302;2023-05-08T14:05:05;3.05;;;1.90;;
76593;SDS011;65482;50.240;14.302;2023-05-08T14:07:33;3.38;;;1.70;;
76593;SDS011;65482;50.240;14.302;2023-05-08T14:09:59;2.20;;;1.70;;
76593;SDS011;65482;50.240;14.302;2023-05-08T14:12:26;2.80;;;1.88;;
76593;SDS011;65482;50.240;14.302;2023-05-08T14:14:54;2.40;;;1.80;;
76593;SDS011;65482;50.240;14.302;2023-05-08T14:17:19;2.20;;;1.58;;
76593;SDS011;65482;50.240;14.302;2023-05-08T14:19:48;3.25;;;1.77;;
76593;SDS011;65482;50.240;14.302;2023-05-08T14:22:15;2.17;;;1.67;;
76593;SDS011;65482;50.240;14.302;2023-05-08T14:24:41;3.33;;;1.60;;
76593;SDS011;65482;50.240;14.302;2023-05-08T14:27:06;2.17;;;1.77;;
76593;SDS011;65482;50.240;14.302;2023-05-08T14:29:32;2.40;;;1.90;;
76593;SDS011;65482;50.240;14.302;2023-05-08T14:31:59;3.75;;;1.63;;
76593;SDS011;65482;50.240;14.302;2023-05-08T14:34:26;2.15;;;1.80;;
76593;SDS011;65482;50.240;14.302;2023-05-08T14:36:51;3.13;;;1.90;;
76593;SDS011;65482;50.240;14.302;2023-05-08T14:39:17;5.47;;;1.80;;
76593;SDS011;65482;50.240;14.302;2023-05-08T14:41:43;2.28;;;1.63;;
76593;SDS011;65482;50.240;14.302;2023-05-08T14:44:09;3.10;;;2.30;;
76593;SDS011;65482;50.240;14.302;2023-05-08T14:46:34;2.35;;;1.92;;
76593;SDS011;65482;50.240;14.302;2023-05-08T14:49:01;2.45;;;1.70;;
76593;SDS011;65482;50.240;14.302;2023-05-08T14:51:27;3.08;;;1.95;;
76593;SDS011;65482;50.240;14.302;2023-05-08T14:53:52;2.15;;;1.75;;
76593;SDS011;65482;50.240;14.302;2023-05-08T14:56:18;2.67;;;1.90;;
76593;SDS011;65482;50.240;14.302;2023-05-08T14:58:48;3.13;;;1.70;;
76593;SDS011;65482;50.240;14.302;2023-05-08T15:01:16;2.25;;;1.95;;
76593;SDS011;65482;50.240;14.302;2023-05-08T15:03:42;2.90;;;1.83;;
76593;SDS011;65482;50.240;14.302;2023-05-08T15:06:11;10.07;;;2.00;;
76593;SDS011;65482;50.240;14.302;2023-05-08T15:08:37;1.90;;;1.67;;
76593;SDS011;65482;50.240;14.302;2023-05-08T15:11:02;2.65;;;1.80;;
76593;SDS011;65482;50.240;14.302;2023-05-08T15:13:29;6.15;;;1.90;;
76593;SDS011;65482;50.240;14.302;2023-05-08T15:15:54;4.57;;;2.20;;
76593;SDS011;65482;50.240;14.302;2023-05-08T15:18:22;3.00;;;2.05;;
76593;SDS011;65482;50.240;14.302;2023-05-08T15:20:48;7.43;;;2.10;;
76593;SDS011;65482;50.240;14.302;2023-05-08T15:23:14;2.75;;;2.00;;
76593;SDS011;65482;50.240;14.302;2023-05-08T15:25:40;2.80;;;1.70;;
76593;SDS011;65482;50.240;14.302;2023-05-08T15:28:06;3.75;;;3.17;;
76593;SDS011;65482;50.240;14.302;2023-05-08T15:30:33;3.08;;;1.92;;
76593;SDS011;65482;50.240;14.302;2023-05-08T15:32:59;2.10;;;1.50;;
76593;SDS011;65482;50.240;14.302;2023-05-08T15:35:24;3.70;;;2.78;;
76593;SDS011;65482;50.240;14.302;2023-05-08T15:37:50;2.35;;;1.60;;
76593;SDS011;65482;50.240;14.302;2023-05-08T15:40:16;3.70;;;1.80;;
76593;SDS011;65482;50.240;14.302;2023-05-08T15:42:42;3.38;;;1.88;;